This is the latest recevied weather packets stored in our database for station/object N2XGL-1. If no packets are shown the sender has not sent any weather packets the latest 10 day(s).
| Time | Temp. | Humidity | Pressure | Rain* | Wind** | Luminosity | Snow |
|---|---|---|---|---|---|---|---|
| 1777510409 | 10.56° C | 60% | 1013.8 hPa | 0 mm | - | - | - |
| 1777509818 | 10.56° C | 61% | 1013.4 hPa | 0 mm | - | - | - |
| 1777509309 | 10.56° C | 59% | 1013.3 hPa | 0 mm | - | - | - |
| 1777508714 | 11.11° C | 57% | 1013.5 hPa | 0 mm | - | - | - |
| 1777508126 | 11.11° C | 58% | 1013.7 hPa | 0 mm | - | - | - |
| 1777507570 | 11.67° C | 54% | 1013.4 hPa | 0 mm | - | - | - |
| 1777506994 | 12.78° C | 52% | 1013.3 hPa | 0 mm | - | - | - |
| 1777506504 | 12.78° C | 45% | 1013.1 hPa | 0 mm | - | - | - |
| 1777505959 | 12.78° C | 47% | 1012.8 hPa | 0 mm | - | - | - |
| 1777505452 | 12.78° C | 46% | 1012.7 hPa | 0 mm | - | - | - |
| 1777504322 | 12.78° C | 45% | 1012.8 hPa | 0 mm | - | - | - |
| 1777503739 | 12.78° C | 47% | 1012.8 hPa | 0 mm | - | - | - |
| 1777503193 | 13.33° C | 47% | 1012.5 hPa | 0 mm | - | - | - |
| 1777502188 | 14.44° C | 44% | 1012 hPa | 0 mm | - | - | - |
| 1777501099 | 13.89° C | 46% | 1012.2 hPa | 0 mm | - | - | - |
| 1777500534 | 13.89° C | 48% | 1012.3 hPa | 0 mm | - | - | - |
| 1777500049 | 13.89° C | 47% | 1012.3 hPa | 0 mm | - | - | - |
| 1777499559 | 13.89° C | 47% | 1012.4 hPa | 0 mm | - | - | - |
| 1777498529 | 13.89° C | 46% | 1012.4 hPa | 0 mm | - | - | - |
| 1777497939 | 14.44° C | 46% | 1012.2 hPa | 0 mm | - | - | - |
| 1777497354 | 14.44° C | 45% | 1012.3 hPa | 0 mm | - | - | - |
| 1777496799 | 14.44° C | 47% | 1012.5 hPa | 0 mm | - | - | - |
| 1777496269 | 13.89° C | 51% | 1012.6 hPa | 0 mm | - | - | - |
| 1777495674 | 13.89° C | 50% | 1012.8 hPa | 0 mm | - | - | - |
| 1777495267 | 13.33° C | 53% | 1012.9 hPa | 0 mm | - | - | - |
* Rain latest hour (hover to see other rain measurements)
** Current wind speed in m/s (hover to see current wind gust speed)